createdAt,value
2018-06-18T04:09:48.611Z,16.57
2018-06-18T04:10:14.106Z,16.6
2018-06-18T04:10:39.621Z,16.58
2018-06-18T04:11:05.153Z,16.58
2018-06-18T04:11:30.601Z,16.57
2018-06-18T04:11:56.087Z,16.69
2018-06-18T04:12:54.108Z,16.58
2018-06-18T04:13:19.593Z,16.56
2018-06-18T04:13:45.082Z,16.58
2018-06-18T04:14:10.572Z,16.61
2018-06-18T04:14:36.077Z,16.54
2018-06-18T04:15:01.594Z,16.56
2018-06-18T04:15:27.163Z,16.54
2018-06-18T04:15:52.663Z,16.58
2018-06-18T04:16:18.160Z,16.58
2018-06-18T04:16:43.652Z,16.58
2018-06-18T04:17:09.160Z,16.53
2018-06-18T04:17:34.688Z,16.57
2018-06-18T04:18:00.177Z,16.6
2018-06-18T04:18:25.691Z,16.53
2018-06-18T04:18:51.173Z,16.65
2018-06-18T04:19:16.674Z,16.57
2018-06-18T04:19:42.170Z,16.54
2018-06-18T04:20:07.677Z,16.54
2018-06-18T04:20:33.169Z,16.65
2018-06-18T04:20:58.660Z,16.54
2018-06-18T04:21:24.164Z,16.64
2018-06-18T04:21:49.653Z,16.64
2018-06-18T04:22:15.258Z,16.64
2018-06-18T04:22:40.671Z,16.57
2018-06-18T04:23:06.159Z,16.65
2018-06-18T04:23:31.649Z,16.6
2018-06-18T04:23:57.142Z,16.64
2018-06-18T04:24:22.672Z,16.64
2018-06-18T04:24:48.167Z,16.66
2018-06-18T04:25:13.661Z,16.61
2018-06-18T04:25:39.169Z,16.61
2018-06-18T04:26:04.661Z,16.72
2018-06-18T04:26:30.198Z,16.64
2018-06-18T04:26:55.692Z,16.69
2018-06-18T04:27:21.237Z,16.65
2018-06-18T04:27:46.733Z,16.72
2018-06-18T04:28:12.237Z,16.69
2018-06-18T04:28:37.780Z,16.71
2018-06-18T04:29:03.269Z,16.71
2018-06-18T04:29:28.769Z,16.75
2018-06-18T04:29:54.245Z,16.76
2018-06-18T04:30:19.767Z,16.87
2018-06-18T04:30:45.265Z,16.79
2018-06-18T04:31:10.742Z,16.75
2018-06-18T04:31:36.259Z,16.72
2018-06-18T04:32:01.810Z,16.83
2018-06-18T04:32:27.250Z,16.83
2018-06-18T04:32:52.754Z,16.83
2018-06-18T04:33:18.247Z,16.76
2018-06-18T04:33:43.757Z,16.83
2018-06-18T04:34:09.279Z,16.75
2018-06-18T04:34:34.759Z,16.81
2018-06-18T04:35:00.246Z,16.74
2018-06-18T04:35:25.742Z,16.83
2018-06-18T04:35:51.247Z,16.78
2018-06-18T04:36:16.763Z,16.79
2018-06-18T04:36:42.270Z,16.81
2018-06-18T04:37:07.781Z,16.75
2018-06-18T04:37:33.299Z,16.78
2018-06-18T04:37:58.771Z,16.71
2018-06-18T04:38:24.263Z,16.74
2018-06-18T04:38:49.802Z,16.71
2018-06-18T04:39:15.292Z,16.71
2018-06-18T04:39:40.763Z,16.74
2018-06-18T04:40:06.270Z,16.81
2018-06-18T04:40:31.774Z,16.72
2018-06-18T04:40:57.275Z,16.69
2018-06-18T04:41:22.789Z,16.76
2018-06-18T04:41:48.292Z,16.74
2018-06-18T04:42:13.765Z,16.75
2018-06-18T04:42:39.294Z,16.79
2018-06-18T04:43:04.773Z,16.74
2018-06-18T04:43:30.274Z,16.79
2018-06-18T04:43:55.780Z,16.74
2018-06-18T04:44:21.333Z,16.81
2018-06-18T04:45:14.284Z,16.83
2018-06-18T04:45:39.789Z,16.81
2018-06-18T04:46:05.285Z,16.76
2018-06-18T04:46:30.784Z,16.83
2018-06-18T04:46:56.300Z,16.81
2018-06-18T04:47:21.814Z,16.83
2018-06-18T04:47:47.333Z,16.83
2018-06-18T04:48:12.832Z,16.76
2018-06-18T04:48:38.337Z,16.72
2018-06-18T04:49:03.809Z,16.83
2018-06-18T04:49:29.318Z,16.83
2018-06-18T04:49:54.797Z,16.83
2018-06-18T04:50:20.283Z,16.76
2018-06-18T04:50:45.797Z,16.81
2018-06-18T04:51:11.286Z,16.83
2018-06-18T04:51:36.788Z,16.9
2018-06-18T04:52:02.284Z,16.84
2018-06-18T04:52:27.775Z,16.87
2018-06-18T04:52:53.275Z,16.75
2018-06-18T04:53:18.758Z,16.86
2018-06-18T04:53:44.248Z,16.91
2018-06-18T04:54:09.726Z,16.9
2018-06-18T04:54:35.223Z,16.94
2018-06-18T04:55:00.728Z,16.89
2018-06-18T04:55:26.243Z,16.87
2018-06-18T04:55:51.777Z,16.94
2018-06-18T04:56:17.263Z,16.93
2018-06-18T04:56:42.844Z,16.97
2018-06-18T04:57:08.327Z,16.93
2018-06-18T04:57:33.824Z,16.87
2018-06-18T04:57:59.320Z,16.94
2018-06-18T04:58:24.859Z,16.9
2018-06-18T04:58:50.384Z,16.96
2018-06-18T04:59:15.914Z,16.94
2018-06-18T04:59:41.414Z,16.9
2018-06-18T05:00:06.957Z,16.89
2018-06-18T05:00:32.431Z,16.9
2018-06-18T05:00:57.912Z,16.99
2018-06-18T05:01:23.437Z,16.93
2018-06-18T05:01:49.025Z,16.96
2018-06-18T05:02:14.448Z,16.93
2018-06-18T05:02:39.958Z,17.05
2018-06-18T05:03:05.447Z,16.97
2018-06-18T05:03:30.974Z,16.99
2018-06-18T05:03:56.492Z,16.97
2018-06-18T05:04:21.979Z,17.02
2018-06-18T05:04:47.472Z,16.99
2018-06-18T05:05:12.962Z,16.96
2018-06-18T05:05:38.498Z,17.02
2018-06-18T05:06:03.996Z,17.06
2018-06-18T05:06:29.493Z,17.08
2018-06-18T05:06:55.021Z,17.08
2018-06-18T05:07:20.521Z,16.97
2018-06-18T05:07:45.984Z,16.97
2018-06-18T05:08:11.475Z,17.06
2018-06-18T05:08:36.975Z,17.08
2018-06-18T05:09:02.488Z,16.94
2018-06-18T05:09:27.986Z,17.02
2018-06-18T05:09:53.503Z,17.09
2018-06-18T05:10:19.020Z,17.05
2018-06-18T05:10:44.490Z,17.02
2018-06-18T05:11:09.992Z,17.05
2018-06-18T05:11:35.507Z,17.05
2018-06-18T05:12:00.997Z,17.04
2018-06-18T05:12:26.532Z,17.05
2018-06-18T05:12:52.072Z,17.02
2018-06-18T05:13:17.521Z,17.04
2018-06-18T05:13:43.037Z,17.05
2018-06-18T05:14:08.511Z,17.05
2018-06-18T05:14:33.993Z,17.06
2018-06-18T05:14:59.468Z,17.05
2018-06-18T05:15:24.952Z,17.01
2018-06-18T05:15:50.496Z,17.06
2018-06-18T05:16:15.981Z,17.04
2018-06-18T05:16:41.504Z,17.16
2018-06-18T05:17:29.838Z,17.19
2018-06-18T05:17:55.314Z,17.2
2018-06-18T05:18:20.827Z,17.16
2018-06-18T05:18:46.315Z,17.15
2018-06-18T05:19:11.804Z,17.15
2018-06-18T05:19:37.314Z,17.16
2018-06-18T05:20:02.785Z,17.04
2018-06-18T05:20:28.325Z,17.06
2018-06-18T05:20:53.810Z,17.14
2018-06-18T05:21:19.280Z,17.2
2018-06-18T05:21:44.782Z,17.16
2018-06-18T05:22:10.280Z,17.14
2018-06-18T05:22:35.772Z,17.19
2018-06-18T05:23:01.281Z,17.15
2018-06-18T05:23:26.775Z,17.16
2018-06-18T05:23:52.258Z,17.16
2018-06-18T05:24:17.773Z,17.04
2018-06-18T05:24:43.278Z,17.15
2018-06-18T05:25:08.755Z,17.19
2018-06-18T05:25:34.292Z,17.16
2018-06-18T05:25:59.799Z,17.14
2018-06-18T05:26:25.361Z,17.16
2018-06-18T05:26:50.809Z,17.19
2018-06-18T05:27:16.312Z,17.16
2018-06-18T05:27:41.768Z,17.11
2018-06-18T05:28:30.099Z,17.19
2018-06-18T05:28:55.581Z,17.2
2018-06-18T05:29:21.075Z,17.12
2018-06-18T05:29:46.578Z,17.14
2018-06-18T05:30:12.133Z,17.15
2018-06-18T05:30:37.640Z,17.19
2018-06-18T05:31:03.125Z,17.19
2018-06-18T05:31:28.628Z,17.22
2018-06-18T05:31:54.129Z,17.24
2018-06-18T05:32:19.650Z,17.14
2018-06-18T05:32:45.149Z,17.22
2018-06-18T05:33:10.632Z,17.19
2018-06-18T05:33:36.158Z,17.24
2018-06-18T05:34:01.672Z,17.16
2018-06-18T05:35:10.438Z,17.2
2018-06-18T05:35:35.913Z,17.2
2018-06-18T05:36:01.379Z,17.26
2018-06-18T05:36:26.880Z,17.23
2018-06-18T05:36:52.374Z,17.24
2018-06-18T05:37:17.876Z,17.23
2018-06-18T05:37:43.358Z,17.26
2018-06-18T05:38:08.834Z,17.29
2018-06-18T05:38:34.309Z,17.22
2018-06-18T05:38:59.811Z,17.26
2018-06-18T05:39:25.317Z,17.26
2018-06-18T05:39:50.867Z,17.27
2018-06-18T05:40:16.325Z,17.24
2018-06-18T05:40:41.805Z,17.26
2018-06-18T05:41:07.296Z,17.23
2018-06-18T05:41:32.797Z,17.2
2018-06-18T05:41:58.333Z,17.29
2018-06-18T05:42:23.806Z,17.27
2018-06-18T05:42:49.301Z,17.27
2018-06-18T05:43:14.798Z,17.26
2018-06-18T05:43:40.283Z,17.26
2018-06-18T05:44:05.765Z,17.24
2018-06-18T05:44:31.243Z,17.31
2018-06-18T05:44:56.759Z,17.3
2018-06-18T05:45:22.252Z,17.3
2018-06-18T05:45:47.768Z,17.26
2018-06-18T05:46:13.227Z,17.19
2018-06-18T05:46:38.754Z,17.31
2018-06-18T05:47:04.266Z,17.29
2018-06-18T05:47:29.774Z,17.29
2018-06-18T05:47:55.251Z,17.33
2018-06-18T05:48:20.740Z,17.29
2018-06-18T05:48:46.234Z,17.31
2018-06-18T05:49:11.730Z,17.27
2018-06-18T05:49:37.216Z,17.34
2018-06-18T05:50:02.693Z,17.41
2018-06-18T05:50:28.215Z,17.34
2018-06-18T05:50:53.686Z,17.34
2018-06-18T05:51:19.196Z,17.33
2018-06-18T05:51:44.682Z,17.38
2018-06-18T05:52:10.180Z,17.33
2018-06-18T05:52:35.691Z,17.33
2018-06-18T05:53:01.199Z,17.36
2018-06-18T05:53:26.715Z,17.38
2018-06-18T05:54:25.243Z,17.36
2018-06-18T05:54:50.724Z,17.38
2018-06-18T05:55:16.227Z,17.38
2018-06-18T05:55:41.745Z,17.44
2018-06-18T05:56:07.282Z,17.42
2018-06-18T05:56:32.766Z,17.38
2018-06-18T05:56:58.238Z,17.36
2018-06-18T05:57:23.765Z,17.46
2018-06-18T05:57:49.306Z,17.45
2018-06-18T05:58:14.809Z,17.45
2018-06-18T05:58:40.352Z,17.48
2018-06-18T05:59:05.820Z,17.44
2018-06-18T05:59:31.329Z,17.46
2018-06-18T05:59:56.810Z,17.54
2018-06-18T06:00:22.325Z,17.49
2018-06-18T06:00:47.824Z,17.48
2018-06-18T06:01:13.309Z,17.46
2018-06-18T06:01:38.832Z,17.56
2018-06-18T06:02:04.330Z,17.48
2018-06-18T06:02:29.853Z,17.63
2018-06-18T06:02:55.379Z,17.57
2018-06-18T06:03:20.890Z,17.63
2018-06-18T06:03:46.386Z,17.51
2018-06-18T06:04:11.899Z,17.56
2018-06-18T06:04:37.432Z,17.57
2018-06-18T06:05:02.901Z,17.54
2018-06-18T06:05:28.388Z,17.56
2018-06-18T06:05:53.889Z,17.56
2018-06-18T06:06:19.387Z,17.59
2018-06-18T06:06:44.889Z,17.6
2018-06-18T06:07:10.362Z,17.6
2018-06-18T06:07:35.896Z,17.57
2018-06-18T06:08:01.412Z,17.56
2018-06-18T06:08:26.903Z,17.63
2018-06-18T06:08:52.401Z,17.48
2018-06-18T06:09:17.950Z,17.57
2018-06-18T06:09:43.383Z,17.59
2018-06-18T06:10:08.860Z,17.54
2018-06-18T06:10:34.385Z,17.59
2018-06-18T06:10:59.888Z,17.64
2018-06-18T06:11:25.455Z,17.6
2018-06-18T06:11:50.936Z,17.63
2018-06-18T06:12:16.420Z,17.63
2018-06-18T06:12:41.925Z,17.67
2018-06-18T06:13:07.418Z,17.64
2018-06-18T06:13:32.930Z,17.67
2018-06-18T06:13:58.400Z,17.67
2018-06-18T06:14:23.923Z,17.68
2018-06-18T06:14:49.428Z,17.74
2018-06-18T06:15:14.946Z,17.76
2018-06-18T06:15:40.447Z,17.7
2018-06-18T06:16:05.928Z,17.72
2018-06-18T06:16:31.420Z,17.68
2018-06-18T06:16:57.000Z,17.71
2018-06-18T06:17:22.420Z,17.76
2018-06-18T06:17:47.906Z,17.68
2018-06-18T06:18:13.403Z,17.7
2018-06-18T06:18:38.918Z,17.7
2018-06-18T06:19:04.413Z,17.71
2018-06-18T06:19:29.910Z,17.7
2018-06-18T06:19:55.407Z,17.76
2018-06-18T06:20:20.907Z,17.72
2018-06-18T06:20:46.390Z,17.74
2018-06-18T06:21:11.882Z,17.7
2018-06-18T06:21:37.386Z,17.67
2018-06-18T06:22:02.881Z,17.71
2018-06-18T06:22:28.382Z,17.74
2018-06-18T06:22:53.865Z,17.68
2018-06-18T06:23:19.386Z,17.67
2018-06-18T06:23:44.889Z,17.72
2018-06-18T06:24:48.475Z,17.71
2018-06-18T06:25:13.986Z,17.74
2018-06-18T06:25:39.493Z,17.79
2018-06-18T06:26:05.011Z,17.74
2018-06-18T06:26:30.524Z,17.64
2018-06-18T06:26:56.003Z,17.78
2018-06-18T06:27:21.517Z,17.7
2018-06-18T06:27:47.012Z,17.68
2018-06-18T06:28:12.487Z,17.67
2018-06-18T06:28:37.979Z,17.68
2018-06-18T06:29:03.505Z,17.72
2018-06-18T06:29:29.039Z,17.78
2018-06-18T06:29:54.519Z,17.71
2018-06-18T06:30:20.027Z,17.72
2018-06-18T06:30:45.513Z,17.79
2018-06-18T06:31:11.017Z,17.72
2018-06-18T06:31:36.565Z,17.7
2018-06-18T06:32:02.063Z,17.7
2018-06-18T06:32:27.586Z,17.71
2018-06-18T06:32:53.090Z,17.74
2018-06-18T06:33:18.605Z,17.71
2018-06-18T06:33:44.091Z,17.74
2018-06-18T06:34:09.634Z,17.74
2018-06-18T06:34:35.074Z,17.71
2018-06-18T06:35:00.574Z,17.71
2018-06-18T06:35:26.052Z,17.68
2018-06-18T06:35:51.535Z,17.72
2018-06-18T06:36:17.024Z,17.72
2018-06-18T06:36:42.517Z,17.74
2018-06-18T06:37:08.034Z,17.71
2018-06-18T06:37:33.561Z,17.71
2018-06-18T06:37:59.000Z,17.78
2018-06-18T06:38:24.488Z,17.86
2018-06-18T06:38:50.104Z,17.79
2018-06-18T06:39:15.625Z,17.78
2018-06-18T06:39:41.110Z,17.83
2018-06-18T06:40:06.627Z,17.85
2018-06-18T06:40:32.105Z,17.8
2018-06-18T06:40:57.614Z,17.78
2018-06-18T06:41:23.134Z,17.87
2018-06-18T06:41:48.650Z,17.8
2018-06-18T06:42:14.162Z,17.67
2018-06-18T06:42:39.661Z,17.83
2018-06-18T06:43:05.192Z,17.82
2018-06-18T06:44:13.897Z,17.82
2018-06-18T06:44:39.408Z,17.9
2018-06-18T06:45:04.899Z,17.87
2018-06-18T06:45:30.380Z,17.87
2018-06-18T06:45:55.915Z,17.87
2018-06-18T06:46:21.419Z,17.86
2018-06-18T06:46:46.914Z,17.92
2018-06-18T06:47:12.401Z,17.89
2018-06-18T06:47:37.906Z,17.92
2018-06-18T06:48:03.405Z,17.89
2018-06-18T06:48:28.875Z,17.97
2018-06-18T06:48:54.440Z,17.95
2018-06-18T06:49:19.866Z,17.94
2018-06-18T06:49:45.347Z,17.98
2018-06-18T06:50:10.864Z,17.98
2018-06-18T06:50:36.366Z,17.97
2018-06-18T06:51:01.845Z,17.95
2018-06-18T06:51:27.355Z,18.11
2018-06-18T06:51:52.841Z,18.03
2018-06-18T06:52:18.331Z,18.08
2018-06-18T06:52:43.826Z,18.1
2018-06-18T06:53:37.280Z,18.08
2018-06-18T06:54:02.790Z,18.08
2018-06-18T06:54:28.292Z,18.11
2018-06-18T06:54:53.808Z,18.11
2018-06-18T06:55:19.300Z,18.19
2018-06-18T06:55:44.808Z,18.13
2018-06-18T06:56:10.304Z,18.1
2018-06-18T06:56:35.781Z,18.13
2018-06-18T06:57:01.297Z,18.13
2018-06-18T06:57:26.805Z,18.11
2018-06-18T06:57:52.307Z,18.13
2018-06-18T06:58:17.788Z,18.1
2018-06-18T06:58:43.310Z,18.1
2018-06-18T06:59:08.817Z,18.07
2018-06-18T06:59:34.352Z,18.15
2018-06-18T06:59:59.842Z,18.08
2018-06-18T07:00:25.359Z,18.07
2018-06-18T07:00:50.875Z,18.11
2018-06-18T07:01:16.430Z,18.1
2018-06-18T07:01:41.877Z,18.19
2018-06-18T07:02:07.371Z,18.13
2018-06-18T07:02:32.873Z,18.23
2018-06-18T07:02:58.377Z,18.19
2018-06-18T07:03:23.885Z,18.11
2018-06-18T07:03:49.348Z,18.18
2018-06-18T07:04:14.872Z,18.18
2018-06-18T07:04:40.387Z,18.25
2018-06-18T07:05:05.885Z,18.15
2018-06-18T07:05:31.393Z,18.18
2018-06-18T07:05:56.909Z,18.19
2018-06-18T07:06:22.403Z,18.16
2018-06-18T07:06:47.932Z,18.25
2018-06-18T07:07:13.427Z,18.19
2018-06-18T07:07:38.923Z,18.22
2018-06-18T07:08:04.454Z,18.2
2018-06-18T07:08:29.882Z,18.28
2018-06-18T07:08:55.383Z,18.26
2018-06-18T07:09:20.850Z,18.26
2018-06-18T07:09:46.340Z,18.22
2018-06-18T07:10:11.830Z,18.22
2018-06-18T07:10:37.322Z,18.2
2018-06-18T07:11:02.826Z,18.28
2018-06-18T07:11:28.350Z,18.22
2018-06-18T07:11:53.854Z,18.18
2018-06-18T07:12:19.337Z,18.18
2018-06-18T07:12:44.816Z,18.19
2018-06-18T07:13:10.311Z,18.22
2018-06-18T07:13:35.855Z,18.2
2018-06-18T07:14:01.324Z,18.2
2018-06-18T07:14:26.776Z,18.15
2018-06-18T07:14:52.265Z,18.19
2018-06-18T07:15:17.797Z,18.19
2018-06-18T07:15:43.315Z,18.22
2018-06-18T07:16:08.823Z,18.2
2018-06-18T07:16:34.276Z,18.2
2018-06-18T07:16:59.796Z,18.29
2018-06-18T07:17:25.290Z,18.2
2018-06-18T07:17:50.793Z,18.28
2018-06-18T07:18:16.280Z,18.29
2018-06-18T07:18:41.798Z,18.26
2018-06-18T07:19:30.120Z,18.31
2018-06-18T07:19:55.615Z,18.29
2018-06-18T07:20:21.150Z,18.34
2018-06-18T07:20:46.663Z,18.35
2018-06-18T07:21:12.161Z,18.25
2018-06-18T07:21:37.645Z,18.4
2018-06-18T07:22:03.144Z,18.34
2018-06-18T07:22:28.713Z,18.37
2018-06-18T07:22:54.214Z,18.43
2018-06-18T07:23:19.725Z,18.49
2018-06-18T07:23:45.217Z,18.37
2018-06-18T07:24:10.698Z,18.43
2018-06-18T07:24:36.203Z,18.47
2018-06-18T07:25:01.672Z,18.44
2018-06-18T07:25:27.210Z,18.56
2018-06-18T07:25:52.683Z,18.5
2018-06-18T07:26:18.206Z,18.52
2018-06-18T07:26:43.699Z,18.52
2018-06-18T07:27:09.230Z,18.55
2018-06-18T07:27:34.689Z,18.58
2018-06-18T07:28:00.174Z,18.63
2018-06-18T07:28:25.641Z,18.7
2018-06-18T07:28:51.134Z,18.71
2018-06-18T07:29:16.639Z,18.71
2018-06-18T07:29:42.122Z,18.75
2018-06-18T07:30:07.599Z,18.84
2018-06-18T07:30:33.272Z,18.83
2018-06-18T07:30:58.667Z,18.86
2018-06-18T07:32:07.320Z,18.98
2018-06-18T07:32:32.866Z,19
2018-06-18T07:32:58.352Z,18.99
2018-06-18T07:33:23.862Z,19.16
2018-06-18T07:33:49.349Z,19.21
2018-06-18T07:34:14.872Z,19.18
2018-06-18T07:34:40.370Z,19.24
2018-06-18T07:35:05.880Z,19.27
2018-06-18T07:35:31.417Z,19.29
2018-06-18T07:35:56.926Z,19.37
2018-06-18T07:36:22.410Z,19.39
2018-06-18T07:36:47.912Z,19.41
2018-06-18T07:37:13.392Z,19.3
2018-06-18T07:37:38.907Z,19.44
2018-06-18T07:38:04.383Z,19.39
2018-06-18T07:38:29.936Z,19.44
2018-06-18T07:38:55.392Z,19.51
2018-06-18T07:39:20.906Z,19.59
2018-06-18T07:39:46.383Z,19.63
2018-06-18T07:40:11.899Z,19.62
2018-06-18T07:40:37.412Z,19.52
2018-06-18T07:41:02.904Z,19.59
2018-06-18T07:41:28.405Z,19.69
2018-06-18T07:41:53.920Z,19.66
2018-06-18T07:42:19.415Z,19.66
2018-06-18T07:42:44.905Z,19.63
2018-06-18T07:43:10.419Z,19.71
2018-06-18T07:43:35.925Z,19.67
2018-06-18T07:44:01.414Z,19.63
2018-06-18T07:44:26.903Z,19.66
2018-06-18T07:44:52.410Z,19.62
2018-06-18T07:45:17.917Z,19.66
2018-06-18T07:45:43.413Z,19.58
2018-06-18T07:46:08.908Z,19.67
2018-06-18T07:46:34.384Z,19.56
2018-06-18T07:46:59.881Z,19.62
2018-06-18T07:47:25.414Z,19.56
2018-06-18T07:47:50.906Z,19.62
2018-06-18T07:48:16.413Z,19.52
2018-06-18T07:48:41.958Z,19.45
2018-06-18T07:49:07.467Z,19.41
2018-06-18T07:49:32.953Z,19.47
2018-06-18T07:49:58.471Z,19.4
2018-06-18T07:50:23.950Z,19.34
2018-06-18T07:50:49.453Z,19.34
2018-06-18T07:51:15.051Z,19.4
2018-06-18T07:51:40.531Z,19.47
2018-06-18T07:52:06.016Z,19.36
2018-06-18T07:52:31.491Z,19.33
2018-06-18T07:52:56.974Z,19.4
2018-06-18T07:53:22.504Z,19.33
2018-06-18T07:53:48.019Z,19.34
2018-06-18T07:54:13.540Z,19.48
2018-06-18T07:54:39.070Z,19.37
2018-06-18T07:55:04.597Z,19.33
2018-06-18T07:55:30.100Z,19.36
2018-06-18T07:55:55.561Z,19.37
2018-06-18T07:56:21.068Z,19.36
2018-06-18T07:56:46.577Z,19.37
2018-06-18T07:57:12.084Z,19.47
2018-06-18T07:57:37.642Z,19.51
2018-06-18T07:58:03.084Z,19.31
2018-06-18T07:58:28.575Z,19.33
2018-06-18T07:58:54.068Z,19.29
2018-06-18T07:59:19.558Z,19.37
2018-06-18T07:59:45.052Z,19.37
2018-06-18T08:00:10.569Z,19.4
2018-06-18T08:00:36.104Z,19.27
2018-06-18T08:01:01.597Z,19.37
2018-06-18T08:01:27.078Z,19.34
2018-06-18T08:01:52.590Z,19.37
2018-06-18T08:02:18.090Z,19.33
2018-06-18T08:02:43.601Z,19.37
2018-06-18T08:03:09.108Z,19.37
2018-06-18T08:03:34.674Z,19.47
2018-06-18T08:04:00.119Z,19.44
2018-06-18T08:04:25.621Z,19.41
2018-06-18T08:04:51.151Z,19.33
2018-06-18T08:05:16.667Z,19.36
2018-06-18T08:05:42.191Z,19.37
2018-06-18T08:06:07.702Z,19.36
2018-06-18T08:06:33.184Z,19.36
2018-06-18T08:06:58.659Z,19.37
2018-06-18T08:07:24.143Z,19.37
2018-06-18T08:07:49.642Z,19.48
2018-06-18T08:08:15.131Z,19.48
2018-06-18T08:08:40.663Z,19.44
2018-06-18T08:09:06.157Z,19.49
2018-06-18T08:09:31.729Z,19.45
2018-06-18T08:09:57.317Z,19.49
2018-06-18T08:11:01.197Z,19.45
2018-06-18T08:11:26.753Z,19.47
2018-06-18T08:11:52.254Z,19.48
2018-06-18T08:12:17.751Z,19.51
2018-06-18T08:12:43.240Z,19.58
2018-06-18T08:13:08.756Z,19.58
2018-06-18T08:13:34.263Z,19.58
2018-06-18T08:13:59.748Z,19.59
2018-06-18T08:14:25.250Z,19.58
2018-06-18T08:14:50.744Z,19.59
2018-06-18T08:15:16.278Z,19.55
2018-06-18T08:15:41.755Z,19.59
2018-06-18T08:16:07.242Z,19.59
2018-06-18T08:16:32.717Z,19.62
2018-06-18T08:16:58.231Z,19.66
2018-06-18T08:17:23.718Z,19.62
2018-06-18T08:17:49.234Z,19.66
2018-06-18T08:18:14.773Z,19.52
2018-06-18T08:18:40.252Z,19.55
2018-06-18T08:19:05.797Z,19.54
2018-06-18T08:19:31.242Z,19.63
2018-06-18T08:19:56.721Z,19.66
2018-06-18T08:20:22.298Z,19.69
2018-06-18T08:20:47.722Z,19.64
2018-06-18T08:21:13.198Z,19.66
2018-06-18T08:21:38.699Z,19.62
2018-06-18T08:22:04.218Z,19.63
2018-06-18T08:22:29.729Z,19.79
2018-06-18T08:22:55.256Z,19.67
2018-06-18T08:23:20.725Z,19.71
2018-06-18T08:23:46.272Z,19.69
2018-06-18T08:24:11.717Z,19.73
2018-06-18T08:24:37.252Z,19.86
2018-06-18T08:25:02.790Z,19.82
2018-06-18T08:25:28.265Z,19.82
2018-06-18T08:25:53.764Z,19.84
2018-06-18T08:26:19.248Z,19.81
2018-06-18T08:26:44.741Z,19.84
2018-06-18T08:27:10.283Z,19.91
2018-06-18T08:27:35.782Z,19.92
2018-06-18T08:28:01.276Z,19.92
2018-06-18T08:28:26.752Z,19.92
2018-06-18T08:28:52.276Z,19.92
2018-06-18T08:29:17.767Z,20
2018-06-18T08:29:43.296Z,20.06
2018-06-18T08:30:08.778Z,19.92
2018-06-18T08:30:34.269Z,19.96
2018-06-18T08:30:59.750Z,20
2018-06-18T08:31:25.239Z,20
2018-06-18T08:31:50.747Z,20.09
2018-06-18T08:32:16.250Z,20.14
2018-06-18T08:32:41.733Z,20.14
2018-06-18T08:33:07.211Z,20.09
2018-06-18T08:33:32.706Z,20.11
2018-06-18T08:33:58.178Z,20.13
2018-06-18T08:34:23.677Z,20.13
2018-06-18T08:34:49.248Z,20.13
2018-06-18T08:35:14.650Z,20.16
2018-06-18T08:35:40.142Z,20.16
2018-06-18T08:36:05.642Z,20.16
2018-06-18T08:36:31.143Z,20.24
2018-06-18T08:36:56.643Z,20.19
2018-06-18T08:37:22.138Z,20.21
2018-06-18T08:37:47.621Z,20.26
2018-06-18T08:38:13.147Z,20.24
2018-06-18T08:38:38.614Z,20.31
2018-06-18T08:39:04.130Z,20.26
2018-06-18T08:39:29.605Z,20.28
2018-06-18T08:39:55.116Z,20.47
2018-06-18T08:40:20.626Z,20.4
2018-06-18T08:40:46.141Z,20.56
2018-06-18T08:41:11.608Z,20.52
2018-06-18T08:41:37.098Z,20.59
2018-06-18T08:42:02.600Z,20.66
2018-06-18T08:42:28.112Z,20.62
2018-06-18T08:42:53.660Z,20.7
2018-06-18T08:43:19.145Z,20.74
2018-06-18T08:43:44.632Z,20.84
2018-06-18T08:44:10.122Z,20.9
2018-06-18T08:44:35.624Z,20.96
2018-06-18T08:45:01.102Z,21
2018-06-18T08:45:26.591Z,20.99
2018-06-18T08:45:52.105Z,21
2018-06-18T08:46:17.607Z,21.07
2018-06-18T08:46:43.107Z,21.07
2018-06-18T08:47:08.620Z,21.11
2018-06-18T08:47:34.112Z,21.06
2018-06-18T08:47:59.653Z,21.07
2018-06-18T08:48:25.152Z,21.12
2018-06-18T08:48:50.656Z,21.27
2018-06-18T08:49:16.152Z,21.27
2018-06-18T08:49:41.677Z,21.25
2018-06-18T08:50:07.157Z,21.33
2018-06-18T08:50:32.659Z,21.35
2018-06-18T08:50:58.151Z,21.3
2018-06-18T08:51:23.649Z,21.32
2018-06-18T08:51:49.167Z,21.32
2018-06-18T08:52:14.656Z,21.29
2018-06-18T08:52:40.148Z,21.21
2018-06-18T08:53:05.657Z,21.32
2018-06-18T08:53:31.153Z,21.37
2018-06-18T08:53:56.685Z,21.54
2018-06-18T08:54:22.162Z,21.55
2018-06-18T08:54:47.646Z,21.54
2018-06-18T08:55:13.142Z,21.52
2018-06-18T08:55:38.651Z,21.54
2018-06-18T08:56:04.171Z,21.58
2018-06-18T08:56:29.693Z,21.66
2018-06-18T08:56:55.169Z,21.69
2018-06-18T08:57:20.634Z,21.69
2018-06-18T08:57:46.211Z,21.72
2018-06-18T08:58:11.662Z,21.6
2018-06-18T08:58:37.141Z,21.6
2018-06-18T08:59:02.659Z,21.6
2018-06-18T08:59:28.125Z,21.61
2018-06-18T08:59:53.628Z,21.64
2018-06-18T09:00:19.165Z,21.64
2018-06-18T09:00:44.657Z,21.6
2018-06-18T09:01:10.168Z,21.67
2018-06-18T09:01:35.684Z,21.62
2018-06-18T09:02:01.162Z,21.61
2018-06-18T09:02:26.657Z,21.67
2018-06-18T09:03:25.245Z,21.72
2018-06-18T09:03:50.700Z,21.7
2018-06-18T09:04:16.175Z,21.69
2018-06-18T09:04:41.704Z,21.7
2018-06-18T09:05:07.295Z,21.8
2018-06-18T09:05:32.785Z,21.66
2018-06-18T09:05:58.302Z,21.72
2018-06-18T09:06:23.804Z,21.8
2018-06-18T09:06:49.312Z,21.73
2018-06-18T09:07:14.789Z,21.8
2018-06-18T09:07:40.302Z,21.83
2018-06-18T09:08:05.799Z,21.82
2018-06-18T09:08:31.347Z,21.83
2018-06-18T09:08:56.838Z,21.92
2018-06-18T09:09:22.426Z,21.95
2018-06-18T09:09:47.903Z,21.98
2018-06-18T09:10:13.502Z,21.96
2018-06-18T09:10:38.957Z,22.1
2018-06-18T09:11:04.473Z,22.15
2018-06-18T09:11:29.979Z,22.18
2018-06-18T09:11:55.500Z,22.28
2018-06-18T09:12:21.101Z,22.41
2018-06-18T09:12:46.789Z,22.38
2018-06-18T09:13:12.272Z,22.55
2018-06-18T09:13:37.771Z,22.54
2018-06-18T09:14:03.240Z,22.62
2018-06-18T09:14:28.793Z,22.7
2018-06-18T09:14:54.284Z,22.76
2018-06-18T09:15:19.775Z,22.85
2018-06-18T09:15:45.249Z,22.9
2018-06-18T09:16:10.803Z,22.98
2018-06-18T09:16:36.254Z,23.03
2018-06-18T09:17:01.766Z,23.15
2018-06-18T09:17:27.286Z,23.23
2018-06-18T09:17:52.790Z,23.12
2018-06-18T09:18:18.291Z,23.21
2018-06-18T09:18:43.809Z,23.25
2018-06-18T09:19:09.291Z,23.4
2018-06-18T09:19:34.791Z,23.46
2018-06-18T09:20:00.305Z,23.43
2018-06-18T09:20:25.763Z,23.43
2018-06-18T09:20:51.241Z,23.4
2018-06-18T09:21:16.740Z,23.44
2018-06-18T09:21:42.284Z,23.34
2018-06-18T09:22:07.747Z,23.39
2018-06-18T09:22:33.230Z,23.25
2018-06-18T09:22:58.789Z,23.24
2018-06-18T09:23:24.312Z,23.25
2018-06-18T09:23:49.854Z,23.23
2018-06-18T09:24:15.372Z,23.23
2018-06-18T09:24:40.888Z,23.15
2018-06-18T09:25:06.397Z,23.08
2018-06-18T09:25:31.972Z,23.12
2018-06-18T09:25:57.416Z,23.02
2018-06-18T09:26:22.909Z,23.06
2018-06-18T09:26:48.446Z,23.02
2018-06-18T09:27:13.916Z,22.87
2018-06-18T09:27:39.329Z,22.88
2018-06-18T09:28:04.810Z,22.81
2018-06-18T09:28:30.294Z,22.9
2018-06-18T09:28:55.780Z,22.78
2018-06-18T09:29:21.296Z,22.8
2018-06-18T09:29:46.827Z,22.72
2018-06-18T09:30:12.314Z,22.68
2018-06-18T09:30:37.836Z,22.53
2018-06-18T09:31:03.343Z,22.53
2018-06-18T09:31:28.831Z,22.55
2018-06-18T09:31:54.366Z,22.51
2018-06-18T09:32:20.046Z,22.38
2018-06-18T09:32:45.353Z,22.32
2018-06-18T09:33:10.831Z,22.41
2018-06-18T09:33:36.333Z,22.3
2018-06-18T09:34:01.934Z,22.17
2018-06-18T09:34:27.360Z,22.23
2018-06-18T09:34:52.880Z,22.11
2018-06-18T09:35:18.374Z,22.06
2018-06-18T09:35:43.965Z,22.07
2018-06-18T09:36:09.409Z,22.04
2018-06-18T09:36:34.914Z,21.96
2018-06-18T09:37:00.391Z,21.93
2018-06-18T09:37:25.926Z,21.92
2018-06-18T09:37:51.489Z,21.83
2018-06-18T09:38:17.031Z,21.88
2018-06-18T09:38:42.622Z,21.79
2018-06-18T09:39:08.104Z,21.85
2018-06-18T09:39:33.653Z,21.8
2018-06-18T09:39:59.134Z,21.85
2018-06-18T09:40:24.628Z,21.76
2018-06-18T09:40:50.115Z,21.83
2018-06-18T09:41:15.613Z,21.79
2018-06-18T09:41:41.112Z,21.8
2018-06-18T09:42:06.627Z,21.85
2018-06-18T09:42:32.094Z,21.82
2018-06-18T09:42:57.567Z,21.98
2018-06-18T09:43:23.076Z,21.99
2018-06-18T09:43:48.547Z,21.98
2018-06-18T09:44:14.112Z,22.1
2018-06-18T09:44:39.534Z,22.04
2018-06-18T09:45:05.014Z,22.07
2018-06-18T09:45:30.450Z,22.07
2018-06-18T09:45:55.913Z,22.18
2018-06-18T09:46:21.434Z,22.2